Time;durP1;ratioP1;P1;durP2;ratioP2;P2;SDS_P1;SDS_P2;PMS_P1;PMS_P2;Temp;Humidity;BMP_temperature;BMP_pressure;BME280_temperature;BME280_humidity;BME280_pressure;Samples;Min_cycle;Max_cycle;Signal;HPM_P1;HPM_P2
2021/10/31 00:01:02;;;;;;;5.10;4.50;;;22.10;44.30;;;;;;5056187;28;20415;-72
2021/10/31 00:03:27;;;;;;;5.60;4.80;;;22.10;44.30;;;;;;5052236;28;20394;-65
2021/10/31 00:05:53;;;;;;;5.38;4.30;;;22.10;44.30;;;;;;5054744;28;20384;-68
2021/10/31 00:08:19;;;;;;;4.57;4.10;;;22.10;44.40;;;;;;5070639;28;20503;-70
2021/10/31 00:10:46;;;;;;;4.45;3.80;;;22.10;44.30;;;;;;5057377;28;21564;-79
2021/10/31 00:13:12;;;;;;;4.65;4.05;;;22.10;44.20;;;;;;5058401;28;20455;-71
2021/10/31 00:15:38;;;;;;;5.40;3.92;;;22.10;44.20;;;;;;5058662;28;20420;-64
2021/10/31 00:18:03;;;;;;;4.20;3.77;;;22.10;44.20;;;;;;5057077;28;20916;-81
2021/10/31 00:20:29;;;;;;;4.68;4.05;;;22.10;44.30;;;;;;5056172;28;20401;-67
2021/10/31 00:22:55;;;;;;;4.60;4.10;;;22.10;44.20;;;;;;5058558;28;20537;-68
2021/10/31 00:25:21;;;;;;;4.38;3.88;;;22.00;44.20;;;;;;5056664;28;20395;-64
2021/10/31 00:27:46;;;;;;;4.57;3.43;;;22.00;44.10;;;;;;5058183;28;20376;-76
2021/10/31 00:30:12;;;;;;;4.57;3.88;;;22.00;44.10;;;;;;5060869;28;20398;-67
2021/10/31 00:32:38;;;;;;;4.77;3.60;;;22.00;44.20;;;;;;5057899;28;20500;-64
2021/10/31 00:35:04;;;;;;;4.00;3.58;;;22.00;44.30;;;;;;5057455;28;20642;-64
2021/10/31 00:37:30;;;;;;;4.28;3.88;;;22.00;44.20;;;;;;5058331;28;20435;-85
2021/10/31 00:39:56;;;;;;;4.63;3.90;;;22.00;44.20;;;;;;5074389;28;20396;-64
2021/10/31 00:42:21;;;;;;;4.03;3.60;;;22.00;44.10;;;;;;5059297;28;20422;-67
2021/10/31 00:44:47;;;;;;;4.22;3.83;;;22.00;44.10;;;;;;5059332;28;20425;-86
2021/10/31 00:47:13;;;;;;;4.50;3.70;;;21.90;44.10;;;;;;5058126;28;20804;-83
2021/10/31 00:49:39;;;;;;;4.03;3.50;;;21.90;44.10;;;;;;5058475;28;20407;-65
2021/10/31 00:52:08;;;;;;;3.75;3.40;;;21.90;44.10;;;;;;5060826;28;20391;-65
2021/10/31 00:54:34;;;;;;;3.83;3.42;;;21.90;44.70;;;;;;5058486;28;20471;-64
2021/10/31 00:57:01;;;;;;;4.38;3.40;;;21.90;44.00;;;;;;5059451;28;20392;-64
2021/10/31 00:59:27;;;;;;;3.80;3.33;;;21.90;44.20;;;;;;5057308;28;20421;-64
2021/10/31 01:01:53;;;;;;;3.80;3.30;;;22.00;44.10;;;;;;5039538;28;20386;-66
2021/10/31 01:04:23;;;;;;;4.30;3.50;;;22.10;44.20;;;;;;5040160;28;20856;-83
2021/10/31 01:06:55;;;;;;;4.03;3.50;;;22.10;43.90;;;;;;5056678;28;20413;-68
2021/10/31 01:09:50;;;;;;;4.20;3.38;;;22.20;43.90;;;;;;5057151;28;20401;-86
2021/10/31 01:12:35;;;;;;;3.80;3.22;;;22.30;43.80;;;;;;5056862;28;20400;-87
2021/10/31 01:15:19;;;;;;;4.05;3.35;;;22.30;43.70;;;;;;5058387;28;20394;-71
2021/10/31 01:17:51;;;;;;;3.83;3.10;;;22.30;43.40;;;;;;5058783;28;20389;-85
2021/10/31 01:20:43;;;;;;;3.38;3.08;;;22.40;43.40;;;;;;5055883;28;20813;-77
2021/10/31 01:24:00;;;;;;;3.40;3.10;;;22.40;43.30;;;;;;5056017;28;20441;-64
2021/10/31 01:26:44;;;;;;;3.57;2.90;;;22.50;43.20;;;;;;4985488;28;20501;-67
2021/10/31 01:29:16;;;;;;;3.78;2.80;;;22.50;43.10;;;;;;4985236;28;20405;-86
2021/10/31 01:32:00;;;;;;;3.08;2.78;;;22.50;43.00;;;;;;5036919;28;20398;-82
2021/10/31 01:34:55;;;;;;;3.42;2.80;;;22.50;42.90;;;;;;5056213;28;20500;-65
2021/10/31 01:37:28;;;;;;;3.42;2.80;;;22.50;43.00;;;;;;5057413;28;20388;-87
2021/10/31 01:40:05;;;;;;;3.33;2.92;;;22.60;43.00;;;;;;5056938;28;20869;-74
2021/10/31 01:42:39;;;;;;;3.45;2.72;;;22.50;43.10;;;;;;5057629;28;20463;-66
2021/10/31 01:45:05;;;;;;;3.40;2.88;;;22.50;43.10;;;;;;5058206;28;20397;-71
2021/10/31 01:47:51;;;;;;;3.28;2.70;;;22.60;43.10;;;;;;5037731;28;20389;-83
2021/10/31 01:50:39;;;;;;;3.38;2.60;;;22.60;43.30;;;;;;5056143;28;20412;-87
2021/10/31 01:53:13;;;;;;;3.50;2.80;;;22.60;43.20;;;;;;5073346;28;20400;-74
2021/10/31 01:55:45;;;;;;;2.83;2.50;;;22.60;43.00;;;;;;5039924;28;20401;-75
2021/10/31 01:58:12;;;;;;;3.30;2.63;;;22.60;43.10;;;;;;5040906;28;20439;-85
2021/10/31 02:00:41;;;;;;;3.33;2.88;;;22.60;43.00;;;;;;5072215;28;20809;-86
2021/10/31 02:03:09;;;;;;;3.22;2.65;;;22.60;42.90;;;;;;5057090;28;20379;-78
2021/10/31 02:05:37;;;;;;;3.03;2.50;;;22.60;42.90;;;;;;5057600;28;20812;-64
2021/10/31 02:08:07;;;;;;;3.22;2.60;;;22.60;43.00;;;;;;5058985;28;20389;-79
2021/10/31 02:10:34;;;;;;;2.90;2.60;;;22.60;43.00;;;;;;5057996;28;21346;-85
2021/10/31 02:13:02;;;;;;;3.15;2.67;;;22.60;42.80;;;;;;5056819;28;20411;-79
2021/10/31 02:15:29;;;;;;;3.00;2.50;;;22.60;42.70;;;;;;5056890;28;20436;-70
2021/10/31 02:17:56;;;;;;;3.50;2.72;;;22.70;42.70;;;;;;5056608;28;20421;-78
2021/10/31 02:20:24;;;;;;;2.92;2.47;;;22.70;42.70;;;;;;5057600;28;20453;-67
2021/10/31 02:23:03;;;;;;;2.88;2.40;;;22.70;42.70;;;;;;5058558;28;20384;-84
2021/10/31 02:25:30;;;;;;;3.22;2.60;;;22.70;42.70;;;;;;5056888;28;21072;-78
2021/10/31 02:27:56;;;;;;;3.13;2.50;;;22.70;42.70;;;;;;5055022;28;20398;-65
2021/10/31 02:30:22;;;;;;;3.17;2.78;;;22.70;42.70;;;;;;5056149;28;20384;-72
2021/10/31 02:32:48;;;;;;;3.42;2.40;;;22.70;42.70;;;;;;5056249;28;20515;-87
2021/10/31 02:35:14;;;;;;;2.90;2.40;;;22.70;42.70;;;;;;5055275;28;20405;-64
2021/10/31 02:37:41;;;;;;;3.13;2.60;;;22.70;42.60;;;;;;5055248;28;20391;-79
2021/10/31 02:40:09;;;;;;;3.20;2.42;;;22.70;42.70;;;;;;5072537;28;20429;-72
2021/10/31 02:42:35;;;;;;;2.83;2.42;;;22.70;42.80;;;;;;5054528;28;20471;-64
2021/10/31 02:45:01;;;;;;;3.38;2.38;;;22.70;42.60;;;;;;5056456;28;20375;-86
2021/10/31 02:47:37;;;;;;;3.38;2.60;;;22.70;42.60;;;;;;5056402;28;20389;-70
2021/10/31 02:50:04;;;;;;;2.73;2.40;;;22.70;42.60;;;;;;5038412;28;20505;-64
2021/10/31 02:53:04;;;;;;;2.88;2.33;;;22.70;42.60;;;;;;5055390;28;20402;-67
2021/10/31 02:56:01;;;;;;;2.83;2.33;;;22.70;42.50;;;;;;5054995;28;20447;-68
2021/10/31 02:58:35;;;;;;;2.65;2.10;;;22.70;42.40;;;;;;5025868;28;20415;-83
2021/10/31 03:01:04;;;;;;;2.80;2.30;;;22.70;42.30;;;;;;5056377;28;20902;-71
2021/10/31 03:03:31;;;;;;;3.00;2.50;;;22.70;42.30;;;;;;5055781;28;20451;-64
2021/10/31 03:05:57;;;;;;;3.20;2.42;;;22.80;42.30;;;;;;5054487;28;20400;-80
2021/10/31 03:08:27;;;;;;;2.60;2.30;;;22.80;42.40;;;;;;5054901;28;20389;-73
2021/10/31 03:10:57;;;;;;;2.67;2.28;;;22.70;42.40;;;;;;5053789;28;20380;-76
2021/10/31 03:13:25;;;;;;;2.60;2.30;;;22.70;42.40;;;;;;5055543;28;20419;-66
2021/10/31 03:15:51;;;;;;;2.40;2.10;;;22.70;42.40;;;;;;5071690;28;20400;-84
2021/10/31 03:18:16;;;;;;;2.83;2.30;;;22.70;42.40;;;;;;5056449;28;20376;-67
2021/10/31 03:20:42;;;;;;;2.60;2.20;;;22.70;42.30;;;;;;5055293;28;20449;-86
2021/10/31 03:23:08;;;;;;;2.92;2.13;;;22.70;42.30;;;;;;5055865;28;20477;-67
2021/10/31 03:25:34;;;;;;;3.00;2.30;;;22.70;42.20;;;;;;5054074;28;20487;-75
2021/10/31 03:27:59;;;;;;;2.60;2.20;;;22.70;42.20;;;;;;5055212;28;20494;-64
2021/10/31 03:30:25;;;;;;;2.85;2.13;;;22.70;42.20;;;;;;5056159;28;20987;-64
2021/10/31 03:32:51;;;;;;;2.40;2.03;;;22.80;42.20;;;;;;5055873;28;20454;-68
2021/10/31 03:35:17;;;;;;;2.50;2.13;;;22.70;42.20;;;;;;5054623;28;20385;-87
2021/10/31 03:37:43;;;;;;;2.97;2.20;;;22.70;42.10;;;;;;5054257;28;20478;-64
2021/10/31 03:40:09;;;;;;;2.35;2.00;;;22.70;42.10;;;;;;5056526;28;20395;-69
2021/10/31 03:42:35;;;;;;;2.40;2.20;;;22.70;42.00;;;;;;5054394;28;20390;-69
2021/10/31 03:45:01;;;;;;;3.30;2.08;;;22.80;42.00;;;;;;5054273;28;20441;-77
2021/10/31 03:47:28;;;;;;;2.35;2.15;;;22.80;42.00;;;;;;5072773;28;20405;-86
2021/10/31 03:49:54;;;;;;;2.78;1.83;;;22.80;42.00;;;;;;5037037;28;20843;-64
2021/10/31 03:52:20;;;;;;;2.40;2.00;;;22.80;42.00;;;;;;5053919;28;20810;-70
2021/10/31 03:54:45;;;;;;;2.80;2.17;;;22.80;41.90;;;;;;5054593;28;20754;-68
2021/10/31 03:57:11;;;;;;;3.00;2.10;;;22.80;42.00;;;;;;5055833;28;20450;-68
2021/10/31 03:59:37;;;;;;;2.33;1.92;;;22.80;42.00;;;;;;5055432;28;20472;-64
2021/10/31 04:02:04;;;;;;;2.50;2.20;;;22.80;42.00;;;;;;5068727;28;20398;-64
2021/10/31 04:04:30;;;;;;;2.30;2.05;;;22.80;41.90;;;;;;5056423;28;20393;-67
2021/10/31 04:06:56;;;;;;;2.67;2.10;;;22.70;41.90;;;;;;5055105;28;20455;-64
2021/10/31 04:09:21;;;;;;;2.38;2.03;;;22.70;41.90;;;;;;5057167;28;20441;-75
2021/10/31 04:11:47;;;;;;;2.58;2.20;;;22.70;41.90;;;;;;5054191;28;20398;-63
2021/10/31 04:14:13;;;;;;;2.90;2.03;;;22.70;41.80;;;;;;5055397;28;20429;-68
2021/10/31 04:16:39;;;;;;;2.42;2.10;;;22.70;41.90;;;;;;5056152;28;20427;-64
2021/10/31 04:19:05;;;;;;;2.90;2.03;;;22.70;41.90;;;;;;5055902;28;20379;-74
2021/10/31 04:21:31;;;;;;;2.50;1.92;;;22.70;41.80;;;;;;5054934;28;20893;-86
2021/10/31 04:23:57;;;;;;;2.43;1.83;;;22.70;41.80;;;;;;5054042;28;20407;-64
2021/10/31 04:26:22;;;;;;;2.22;1.90;;;22.70;41.80;;;;;;5056232;28;20381;-86
2021/10/31 04:28:48;;;;;;;2.40;1.93;;;22.70;41.70;;;;;;5054198;28;20451;-64
2021/10/31 04:31:14;;;;;;;2.60;2.08;;;22.70;41.70;;;;;;5053913;28;20416;-75
2021/10/31 04:33:39;;;;;;;2.30;2.00;;;22.70;41.70;;;;;;5055276;28;20407;-64
2021/10/31 04:36:06;;;;;;;2.50;2.30;;;22.70;41.60;;;;;;5056660;28;20389;-64
2021/10/31 04:38:32;;;;;;;3.50;2.00;;;22.70;41.60;;;;;;5054431;28;20744;-68
2021/10/31 04:40:59;;;;;;;2.20;1.80;;;22.70;41.60;;;;;;5053245;28;20480;-76
2021/10/31 04:43:26;;;;;;;3.03;1.83;;;22.70;41.60;;;;;;5055813;28;20386;-88
2021/10/31 04:45:53;;;;;;;2.47;1.88;;;22.80;41.60;;;;;;5053654;28;20391;-64
2021/10/31 04:48:21;;;;;;;2.58;1.90;;;22.80;41.60;;;;;;5054446;28;20867;-64
2021/10/31 04:50:47;;;;;;;2.30;1.90;;;22.80;41.60;;;;;;5053779;28;20396;-65
2021/10/31 04:53:12;;;;;;;2.15;1.80;;;22.80;41.60;;;;;;5053862;28;20417;-78
2021/10/31 04:55:40;;;;;;;2.40;1.90;;;22.70;41.50;;;;;;5054929;28;20383;-64
2021/10/31 04:58:07;;;;;;;2.22;1.90;;;22.70;41.50;;;;;;5058739;28;20430;-74
2021/10/31 05:00:33;;;;;;;2.10;1.70;;;22.70;41.60;;;;;;5073135;28;20412;-67
2021/10/31 05:02:59;;;;;;;2.17;1.90;;;22.70;41.50;;;;;;5056465;28;20385;-68
2021/10/31 05:05:25;;;;;;;2.38;1.83;;;22.70;41.50;;;;;;5056592;28;20897;-76
2021/10/31 05:07:54;;;;;;;2.45;1.98;;;22.70;41.50;;;;;;5059434;28;20446;-76
2021/10/31 05:10:21;;;;;;;2.13;1.90;;;22.70;41.40;;;;;;5057206;28;20393;-64
2021/10/31 05:12:47;;;;;;;2.47;1.85;;;22.70;41.40;;;;;;5057761;28;20408;-87
2021/10/31 05:15:13;;;;;;;2.30;1.88;;;22.70;41.30;;;;;;5058004;28;20405;-87
2021/10/31 05:17:40;;;;;;;2.40;1.85;;;22.70;41.30;;;;;;5056572;28;20382;-70
2021/10/31 05:20:07;;;;;;;2.00;1.80;;;22.70;41.30;;;;;;5072379;28;20439;-81
2021/10/31 05:22:33;;;;;;;2.17;1.90;;;22.70;41.30;;;;;;5055954;28;21326;-64
2021/10/31 05:24:58;;;;;;;2.25;1.80;;;22.70;41.30;;;;;;5058125;28;20421;-69
2021/10/31 05:27:24;;;;;;;2.55;1.73;;;22.70;41.90;;;;;;5039646;28;20402;-73
2021/10/31 05:29:50;;;;;;;2.30;1.90;;;22.70;41.40;;;;;;5056765;28;20385;-67
2021/10/31 05:32:15;;;;;;;2.10;1.63;;;22.70;41.40;;;;;;5039504;28;20423;-74
2021/10/31 05:34:41;;;;;;;2.20;1.80;;;22.70;41.30;;;;;;5056997;28;20421;-73
2021/10/31 05:37:07;;;;;;;2.23;1.77;;;22.70;41.20;;;;;;5057919;28;20390;-80
2021/10/31 05:39:32;;;;;;;2.00;1.70;;;22.70;41.20;;;;;;5059825;28;20391;-69
2021/10/31 05:41:58;;;;;;;2.03;1.73;;;22.70;41.20;;;;;;5058420;28;20405;-76
2021/10/31 05:44:24;;;;;;;2.47;1.70;;;22.70;41.30;;;;;;5056870;28;20490;-64
2021/10/31 05:46:49;;;;;;;2.35;1.90;;;22.70;41.30;;;;;;5057676;28;20423;-85
2021/10/31 05:49:16;;;;;;;1.73;1.50;;;22.70;41.20;;;;;;5057009;28;20394;-64
2021/10/31 05:51:41;;;;;;;1.50;1.33;;;22.70;41.10;;;;;;5055765;28;20887;-76
2021/10/31 05:54:08;;;;;;;2.25;1.67;;;22.70;41.10;;;;;;5058543;28;20421;-79
2021/10/31 05:56:34;;;;;;;1.95;1.60;;;22.70;41.00;;;;;;5056121;28;20389;-65
2021/10/31 05:58:59;;;;;;;2.00;1.70;;;22.70;41.00;;;;;;5056230;28;20406;-65
2021/10/31 06:01:25;;;;;;;1.90;1.53;;;22.70;41.00;;;;;;5056299;28;20384;-64
2021/10/31 06:03:51;;;;;;;2.92;1.80;;;22.70;41.00;;;;;;5057032;28;20430;-87
2021/10/31 06:06:22;;;;;;;2.97;1.67;;;22.70;41.00;;;;;;5054681;28;20393;-69
2021/10/31 06:08:48;;;;;;;2.20;1.67;;;22.70;41.00;;;;;;5056656;28;20384;-64
2021/10/31 06:11:14;;;;;;;3.30;1.60;;;22.70;41.00;;;;;;5057606;28;20391;-73
2021/10/31 06:13:39;;;;;;;1.92;1.60;;;22.70;41.10;;;;;;5057477;28;20417;-68
2021/10/31 06:16:07;;;;;;;2.25;1.67;;;22.70;41.10;;;;;;5059387;28;20434;-67
2021/10/31 06:18:33;;;;;;;2.22;1.67;;;22.70;41.10;;;;;;5057858;28;20401;-87
2021/10/31 06:20:59;;;;;;;2.17;1.70;;;22.70;41.10;;;;;;5056326;28;20652;-67
2021/10/31 06:23:24;;;;;;;1.90;1.60;;;22.70;41.10;;;;;;5057987;28;20402;-79
2021/10/31 06:25:50;;;;;;;2.10;1.60;;;22.70;41.00;;;;;;5054638;28;20395;-86
2021/10/31 06:28:15;;;;;;;1.90;1.53;;;22.60;41.00;;;;;;5070964;28;20404;-64
2021/10/31 06:30:41;;;;;;;2.13;1.73;;;22.70;41.10;;;;;;5071972;28;20400;-65
2021/10/31 06:33:07;;;;;;;2.60;1.70;;;22.70;41.10;;;;;;5057006;28;20407;-79
2021/10/31 06:35:32;;;;;;;3.78;1.90;;;22.70;41.00;;;;;;5051638;28;20991;-68
2021/10/31 06:37:58;;;;;;;3.10;1.80;;;22.80;41.20;;;;;;5052299;28;20439;-72
2021/10/31 06:40:24;;;;;;;2.72;1.85;;;22.80;40.70;;;;;;5053857;28;20384;-64
2021/10/31 06:42:49;;;;;;;3.35;1.85;;;22.70;40.00;;;;;;5055574;28;20450;-64
2021/10/31 06:45:15;;;;;;;5.07;1.90;;;22.70;40.50;;;;;;5051719;28;20390;-66
2021/10/31 06:47:41;;;;;;;5.13;1.80;;;22.70;40.80;;;;;;5053549;28;20387;-67
2021/10/31 06:50:08;;;;;;;3.15;1.50;;;22.70;41.10;;;;;;5056235;28;20757;-65
2021/10/31 06:52:33;;;;;;;6.72;1.90;;;22.70;41.10;;;;;;5054885;28;20386;-64
2021/10/31 06:54:59;;;;;;;3.17;1.63;;;22.60;41.20;;;;;;5056295;28;20399;-64
2021/10/31 06:57:25;;;;;;;5.60;1.90;;;22.60;41.40;;;;;;5049018;28;20384;-64
2021/10/31 06:59:50;;;;;;;4.10;1.70;;;22.50;41.40;;;;;;5052895;28;20393;-64
2021/10/31 07:02:16;;;;;;;3.90;1.80;;;22.60;41.60;;;;;;5052156;28;20436;-69
2021/10/31 07:04:42;;;;;;;2.80;1.65;;;22.60;41.60;;;;;;5037177;28;20396;-74
2021/10/31 07:07:07;;;;;;;4.07;1.97;;;22.60;42.10;;;;;;5053159;28;20488;-78
2021/10/31 07:09:33;;;;;;;3.67;1.60;;;22.60;41.90;;;;;;5051205;28;20400;-64
2021/10/31 07:11:59;;;;;;;6.83;1.90;;;22.60;42.30;;;;;;5053732;28;20432;-78
2021/10/31 07:14:25;;;;;;;5.28;1.95;;;22.60;42.20;;;;;;5054506;28;20856;-77
2021/10/31 07:16:51;;;;;;;6.65;1.73;;;22.60;42.30;;;;;;5051096;28;20897;-64
2021/10/31 07:19:17;;;;;;;3.10;1.80;;;22.70;42.40;;;;;;5051627;28;20392;-64
2021/10/31 07:21:43;;;;;;;4.28;2.00;;;22.70;42.10;;;;;;5051218;28;20407;-64
2021/10/31 07:24:09;;;;;;;5.13;1.85;;;22.70;42.30;;;;;;5049012;28;20443;-66
2021/10/31 07:26:35;;;;;;;4.53;1.80;;;22.70;42.30;;;;;;5051773;28;20425;-72
2021/10/31 07:29:02;;;;;;;4.43;1.70;;;22.70;42.30;;;;;;5051657;28;20397;-75
2021/10/31 07:31:30;;;;;;;5.18;1.60;;;22.70;42.50;;;;;;5054873;28;20422;-64
2021/10/31 07:33:56;;;;;;;5.32;1.85;;;22.70;42.60;;;;;;5049463;28;20428;-65
2021/10/31 07:36:22;;;;;;;4.83;1.87;;;22.70;42.30;;;;;;5054911;28;20389;-63
2021/10/31 07:38:47;;;;;;;4.38;1.85;;;22.70;43.00;;;;;;5053944;28;20391;-64
2021/10/31 07:41:13;;;;;;;5.00;1.80;;;22.70;43.00;;;;;;5068674;28;20451;-77
2021/10/31 07:43:39;;;;;;;6.40;2.30;;;22.60;43.40;;;;;;5053551;28;20392;-78
2021/10/31 07:46:04;;;;;;;5.47;2.00;;;22.70;44.10;;;;;;5052833;28;20553;-81
2021/10/31 07:48:30;;;;;;;3.80;1.95;;;22.70;43.80;;;;;;5053486;28;20396;-63
2021/10/31 07:50:56;;;;;;;3.70;1.93;;;22.70;42.90;;;;;;5051215;28;20395;-74
2021/10/31 07:53:21;;;;;;;3.10;2.13;;;22.70;42.80;;;;;;5055943;28;20489;-66
2021/10/31 07:55:52;;;;;;;2.90;2.00;;;22.70;43.20;;;;;;5052020;28;20421;-75
2021/10/31 07:58:21;;;;;;;4.93;2.10;;;22.70;44.30;;;;;;5051998;28;20393;-64
2021/10/31 08:00:49;;;;;;;7.65;1.88;;;22.80;44.00;;;;;;5053689;28;20422;-66
2021/10/31 08:03:15;;;;;;;4.05;1.85;;;22.70;43.50;;;;;;5034292;28;20399;-79
2021/10/31 08:05:42;;;;;;;5.60;2.27;;;22.80;42.90;;;;;;5053000;28;20417;-64
2021/10/31 08:08:08;;;;;;;5.47;2.33;;;22.80;43.50;;;;;;5047935;28;20427;-64
2021/10/31 08:10:34;;;;;;;10.20;2.25;;;22.80;43.30;;;;;;5051701;28;20397;-64
2021/10/31 08:13:00;;;;;;;6.03;2.53;;;22.70;43.60;;;;;;5052843;28;20445;-64
2021/10/31 08:15:26;;;;;;;4.37;2.20;;;22.80;43.80;;;;;;5049616;28;20428;-70
2021/10/31 08:17:51;;;;;;;4.28;2.47;;;22.80;43.20;;;;;;5053112;28;20448;-64
2021/10/31 08:20:17;;;;;;;6.67;2.50;;;22.90;42.70;;;;;;5054026;28;20415;-64
2021/10/31 08:22:44;;;;;;;5.25;2.60;;;22.80;43.60;;;;;;5054466;28;20427;-64
2021/10/31 08:25:10;;;;;;;7.25;2.40;;;22.90;43.30;;;;;;5051392;28;20468;-64
2021/10/31 08:27:36;;;;;;;3.97;2.40;;;22.90;43.20;;;;;;5056779;28;20402;-64
2021/10/31 08:30:04;;;;;;;5.25;2.42;;;22.90;43.10;;;;;;5036517;28;20383;-63
2021/10/31 08:32:37;;;;;;;3.22;2.40;;;22.90;43.10;;;;;;5054605;28;20391;-64
2021/10/31 08:35:03;;;;;;;5.40;2.50;;;23.00;43.10;;;;;;5057040;28;20403;-63
2021/10/31 08:37:29;;;;;;;3.58;2.20;;;23.00;42.80;;;;;;5058746;28;20393;-67
2021/10/31 08:39:54;;;;;;;3.42;2.20;;;23.00;42.70;;;;;;5051617;28;20397;-69
2021/10/31 08:42:20;;;;;;;4.13;2.40;;;23.10;42.80;;;;;;5056701;28;20737;-64
2021/10/31 08:44:46;;;;;;;3.90;2.13;;;23.10;42.70;;;;;;5054543;28;20403;-63
2021/10/31 08:47:11;;;;;;;4.55;1.98;;;23.10;42.60;;;;;;5054759;28;20405;-64
2021/10/31 08:49:37;;;;;;;3.40;2.05;;;23.10;42.50;;;;;;5055856;28;20749;-69
2021/10/31 08:52:07;;;;;;;3.85;2.05;;;23.10;42.50;;;;;;5050052;28;20432;-66
2021/10/31 08:54:35;;;;;;;4.20;2.22;;;23.20;42.50;;;;;;5055413;28;20455;-64
2021/10/31 08:57:01;;;;;;;3.08;2.10;;;23.20;42.50;;;;;;5051559;28;20438;-70
2021/10/31 08:59:26;;;;;;;3.00;2.00;;;23.20;42.50;;;;;;5056013;28;20386;-64
2021/10/31 09:01:52;;;;;;;6.80;2.38;;;23.20;42.10;;;;;;5057799;28;20385;-78
2021/10/31 09:04:17;;;;;;;4.68;2.30;;;23.20;42.30;;;;;;5036619;28;20467;-69
2021/10/31 09:06:43;;;;;;;3.60;2.13;;;23.20;41.90;;;;;;5054640;28;20406;-75
2021/10/31 09:09:10;;;;;;;4.20;2.17;;;23.30;41.80;;;;;;5037296;28;20409;-64
2021/10/31 09:11:35;;;;;;;5.30;2.70;;;23.40;41.70;;;;;;5057263;28;20390;-64
2021/10/31 09:14:01;;;;;;;3.70;2.22;;;23.40;41.70;;;;;;5055979;28;20428;-79
2021/10/31 09:16:28;;;;;;;4.67;2.30;;;23.40;41.70;;;;;;5052868;28;20743;-64
2021/10/31 09:18:53;;;;;;;6.20;2.50;;;23.40;41.70;;;;;;5051360;28;20390;-67
2021/10/31 09:21:23;;;;;;;3.70;2.10;;;23.40;41.70;;;;;;5054539;28;20404;-66
2021/10/31 09:23:50;;;;;;;4.82;2.40;;;23.50;41.60;;;;;;5053752;28;20401;-63
2021/10/31 09:26:16;;;;;;;4.15;2.20;;;23.50;41.80;;;;;;5055488;28;20395;-64
2021/10/31 09:28:42;;;;;;;3.90;2.30;;;23.50;41.80;;;;;;5056598;28;20547;-69
2021/10/31 09:31:08;;;;;;;4.18;2.20;;;23.50;41.60;;;;;;5051832;28;20385;-65
2021/10/31 09:33:35;;;;;;;3.83;2.20;;;23.50;41.50;;;;;;5051385;28;20417;-78
2021/10/31 09:36:01;;;;;;;3.55;2.20;;;23.50;41.30;;;;;;5052055;28;20384;-64
2021/10/31 09:38:29;;;;;;;6.47;2.40;;;23.50;41.30;;;;;;5054018;28;20408;-66
2021/10/31 09:40:55;;;;;;;4.78;2.15;;;23.60;41.20;;;;;;5052336;28;20391;-64
2021/10/31 09:43:25;;;;;;;3.85;2.10;;;23.60;41.10;;;;;;5052698;28;20402;-64
2021/10/31 09:45:50;;;;;;;4.00;2.20;;;23.60;41.20;;;;;;5053709;28;20421;-64
2021/10/31 09:48:16;;;;;;;3.83;2.03;;;23.60;41.20;;;;;;5050175;28;20385;-64
2021/10/31 09:50:46;;;;;;;3.33;2.00;;;23.60;41.30;;;;;;5049551;28;20386;-65
2021/10/31 09:53:19;;;;;;;7.45;2.70;;;23.60;41.10;;;;;;5054301;28;20903;-65
2021/10/31 09:55:47;;;;;;;5.07;3.03;;;23.50;41.10;;;;;;5055351;28;20391;-80
2021/10/31 09:58:26;;;;;;;6.03;2.80;;;23.50;39.80;;;;;;5053021;28;20442;-69
2021/10/31 10:00:59;;;;;;;5.78;3.00;;;23.50;41.30;;;;;;5055410;28;20814;-63
2021/10/31 10:06:28;;;;;;;6.88;2.85;;;23.60;41.50;;;;;;5055525;28;20462;-64
2021/10/31 10:09:09;;;;;;;6.95;3.78;;;23.60;40.00;;;;;;5002885;28;20889;-66
2021/10/31 10:11:40;;;;;;;5.47;2.58;;;23.50;39.20;;;;;;5072238;28;20409;-64
2021/10/31 10:14:14;;;;;;;6.80;2.80;;;23.60;41.90;;;;;;5056352;28;20419;-65
2021/10/31 10:16:41;;;;;;;7.40;2.83;;;23.70;41.50;;;;;;5040172;28;20400;-82
2021/10/31 10:19:19;;;;;;;5.87;2.53;;;23.80;41.20;;;;;;5038897;28;21342;-75
2021/10/31 10:22:02;;;;;;;5.68;2.53;;;23.90;41.30;;;;;;5057361;28;20413;-80
2021/10/31 10:24:31;;;;;;;7.85;2.40;;;24.00;41.30;;;;;;5036077;28;20402;-68
2021/10/31 10:27:00;;;;;;;5.90;2.50;;;24.00;41.80;;;;;;5052216;28;20418;-64
2021/10/31 10:29:29;;;;;;;5.25;2.60;;;24.10;41.60;;;;;;5055995;28;20382;-64
2021/10/31 10:32:11;;;;;;;6.68;2.10;;;24.10;41.50;;;;;;5054908;28;20392;-67
2021/10/31 10:34:51;;;;;;;6.35;2.33;;;24.20;42.00;;;;;;5057623;28;20903;-63
2021/10/31 10:37:20;;;;;;;5.45;2.28;;;24.20;41.50;;;;;;5058151;28;20389;-74
2021/10/31 10:39:55;;;;;;;6.72;2.35;;;24.20;41.60;;;;;;5056544;28;20909;-79
2021/10/31 10:42:32;;;;;;;6.40;2.55;;;24.30;41.90;;;;;;5057743;28;20378;-66
2021/10/31 10:45:02;;;;;;;5.93;2.13;;;24.30;41.50;;;;;;5036440;28;20409;-65
2021/10/31 10:47:29;;;;;;;9.52;2.40;;;24.40;41.70;;;;;;5071011;28;20821;-83
2021/10/31 10:49:56;;;;;;;8.05;2.30;;;24.40;41.90;;;;;;5056407;28;20401;-84
2021/10/31 10:52:30;;;;;;;5.47;2.38;;;24.50;42.00;;;;;;5055081;28;20824;-84
2021/10/31 10:55:09;;;;;;;8.63;2.15;;;24.60;41.90;;;;;;5073535;28;20421;-66
2021/10/31 10:57:37;;;;;;;7.25;2.25;;;24.60;41.70;;;;;;5056723;28;20399;-73
2021/10/31 11:00:10;;;;;;;10.77;2.50;;;24.60;41.50;;;;;;5038761;28;20488;-75
2021/10/31 11:02:36;;;;;;;6.38;2.53;;;24.70;41.60;;;;;;5053119;28;20429;-76
2021/10/31 11:05:10;;;;;;;5.53;2.20;;;24.70;41.30;;;;;;5036048;28;20460;-64
2021/10/31 11:07:39;;;;;;;9.15;2.50;;;24.80;41.20;;;;;;5055684;28;20396;-80
2021/10/31 11:10:27;;;;;;;8.85;2.30;;;24.80;41.20;;;;;;5056865;28;20890;-82
2021/10/31 11:12:58;;;;;;;6.75;2.22;;;24.80;41.10;;;;;;5068935;28;20393;-64
2021/10/31 11:15:27;;;;;;;7.38;2.38;;;24.90;41.10;;;;;;5055670;28;20395;-77
2021/10/31 11:17:55;;;;;;;6.80;2.40;;;25.00;41.20;;;;;;5055571;28;20380;-64
2021/10/31 11:20:23;;;;;;;5.70;2.20;;;25.10;41.30;;;;;;5057052;28;20417;-64
2021/10/31 11:22:51;;;;;;;5.82;2.30;;;25.20;41.10;;;;;;5056503;28;20480;-64
2021/10/31 11:25:21;;;;;;;5.43;1.90;;;25.20;41.20;;;;;;5056031;28;20412;-82
2021/10/31 11:27:48;;;;;;;5.90;2.10;;;25.30;41.20;;;;;;5053980;28;20395;-81
2021/10/31 11:30:18;;;;;;;5.80;2.03;;;25.30;41.20;;;;;;5055045;28;20399;-81
2021/10/31 11:32:45;;;;;;;3.78;2.20;;;25.40;40.90;;;;;;5052843;28;20388;-66
2021/10/31 11:35:13;;;;;;;4.22;2.10;;;25.50;41.30;;;;;;5055648;28;20401;-82
2021/10/31 11:37:55;;;;;;;6.30;2.20;;;25.50;41.10;;;;;;5053971;28;20480;-65
2021/10/31 11:40:27;;;;;;;5.85;2.13;;;25.50;40.70;;;;;;5055816;28;20450;-64
2021/10/31 11:42:54;;;;;;;4.60;2.10;;;25.50;40.70;;;;;;5054387;28;20439;-83
2021/10/31 11:45:26;;;;;;;6.40;2.38;;;25.50;40.60;;;;;;5054954;28;20472;-64
2021/10/31 11:48:14;;;;;;;6.32;2.20;;;25.60;40.30;;;;;;5068517;28;20880;-64
2021/10/31 11:50:59;;;;;;;6.32;1.90;;;25.60;40.80;;;;;;5050583;28;20756;-67
2021/10/31 11:53:33;;;;;;;5.28;1.83;;;25.70;40.60;;;;;;5051356;28;20420;-72
2021/10/31 11:56:03;;;;;;;4.10;1.88;;;25.80;40.90;;;;;;5050904;28;20397;-64
2021/10/31 11:58:41;;;;;;;6.05;2.10;;;26.00;41.60;;;;;;5053734;28;20405;-67
2021/10/31 12:01:22;;;;;;;4.90;2.05;;;26.00;41.00;;;;;;5056087;28;20407;-75
2021/10/31 12:03:56;;;;;;;7.05;2.30;;;26.10;41.00;;;;;;5050589;28;20385;-73
2021/10/31 12:06:22;;;;;;;5.75;1.98;;;26.20;41.20;;;;;;5056915;28;20395;-64
2021/10/31 12:08:57;;;;;;;3.95;1.80;;;26.20;41.10;;;;;;5059664;28;20401;-81
2021/10/31 12:11:43;;;;;;;4.07;1.75;;;26.30;41.10;;;;;;5060075;28;20387;-65
2021/10/31 12:14:12;;;;;;;5.60;1.83;;;26.40;41.00;;;;;;5020531;28;20425;-64
2021/10/31 12:16:58;;;;;;;2.97;1.70;;;26.50;41.00;;;;;;5060190;28;20388;-77
2021/10/31 12:19:35;;;;;;;5.13;2.15;;;26.60;40.90;;;;;;5059354;28;20464;-75
2021/10/31 12:22:11;;;;;;;4.20;1.95;;;26.60;41.00;;;;;;5058350;28;20403;-81
2021/10/31 12:24:43;;;;;;;3.33;1.90;;;26.70;41.40;;;;;;5056540;28;20451;-65
2021/10/31 12:27:14;;;;;;;4.35;2.20;;;26.70;40.90;;;;;;5055646;28;20397;-77
2021/10/31 12:29:41;;;;;;;4.57;2.00;;;26.90;41.00;;;;;;5059152;28;20455;-64
2021/10/31 12:32:19;;;;;;;4.65;2.00;;;26.90;40.80;;;;;;5033037;28;20487;-75
2021/10/31 12:34:47;;;;;;;3.83;1.83;;;27.00;40.90;;;;;;5059026;28;20425;-78
2021/10/31 12:37:31;;;;;;;5.43;2.00;;;27.00;40.90;;;;;;5058945;28;20890;-65
2021/10/31 12:39:57;;;;;;;2.97;1.73;;;27.10;41.00;;;;;;5073894;28;20406;-64
2021/10/31 12:42:51;;;;;;;4.15;2.05;;;27.20;41.10;;;;;;5058589;28;20381;-64
2021/10/31 12:45:16;;;;;;;4.05;2.10;;;27.30;40.60;;;;;;5057496;28;20399;-80
2021/10/31 12:47:42;;;;;;;3.60;1.92;;;27.30;40.70;;;;;;5038477;28;20397;-64
2021/10/31 12:50:14;;;;;;;3.00;1.87;;;27.40;41.20;;;;;;5059148;28;20389;-65
2021/10/31 12:52:42;;;;;;;3.65;1.77;;;27.40;40.20;;;;;;5041235;28;20888;-81
2021/10/31 12:55:11;;;;;;;4.90;1.98;;;27.50;41.20;;;;;;5057060;28;20416;-80
2021/10/31 12:57:38;;;;;;;5.05;2.38;;;27.50;40.80;;;;;;5056251;28;20387;-81
2021/10/31 13:00:07;;;;;;;3.20;1.90;;;27.60;41.00;;;;;;5056068;28;20401;-81